sensor_id;sensor_type;location;lat;lon;timestamp;P1;durP1;ratioP1;P2;durP2;ratioP2
69779;SDS011;57052;55.602;38.096;2023-07-13T00:02:23;3.92;;;2.38;;
69779;SDS011;57052;55.602;38.096;2023-07-13T00:04:49;3.90;;;2.15;;
69779;SDS011;57052;55.602;38.096;2023-07-13T00:07:15;4.13;;;2.50;;
69779;SDS011;57052;55.602;38.096;2023-07-13T00:09:45;6.03;;;2.88;;
69779;SDS011;57052;55.602;38.096;2023-07-13T00:12:26;5.07;;;2.92;;
69779;SDS011;57052;55.602;38.096;2023-07-13T00:15:00;4.70;;;2.45;;
69779;SDS011;57052;55.602;38.096;2023-07-13T00:17:29;5.45;;;2.70;;
69779;SDS011;57052;55.602;38.096;2023-07-13T00:19:56;4.00;;;2.38;;
69779;SDS011;57052;55.602;38.096;2023-07-13T00:22:22;4.82;;;2.63;;
69779;SDS011;57052;55.602;38.096;2023-07-13T00:24:51;4.78;;;2.67;;
69779;SDS011;57052;55.602;38.096;2023-07-13T00:27:18;6.13;;;2.45;;
69779;SDS011;57052;55.602;38.096;2023-07-13T00:29:44;6.85;;;2.63;;
69779;SDS011;57052;55.602;38.096;2023-07-13T00:32:10;6.03;;;2.78;;
69779;SDS011;57052;55.602;38.096;2023-07-13T00:34:37;4.10;;;2.28;;
69779;SDS011;57052;55.602;38.096;2023-07-13T00:37:04;6.80;;;2.88;;
69779;SDS011;57052;55.602;38.096;2023-07-13T00:39:32;5.88;;;2.72;;
69779;SDS011;57052;55.602;38.096;2023-07-13T00:41:58;5.97;;;2.90;;
69779;SDS011;57052;55.602;38.096;2023-07-13T00:44:25;6.38;;;2.65;;
69779;SDS011;57052;55.602;38.096;2023-07-13T00:46:51;4.75;;;2.35;;
69779;SDS011;57052;55.602;38.096;2023-07-13T00:49:18;4.97;;;2.40;;
69779;SDS011;57052;55.602;38.096;2023-07-13T00:54:18;6.68;;;2.35;;
69779;SDS011;57052;55.602;38.096;2023-07-13T00:56:48;3.72;;;2.10;;
69779;SDS011;57052;55.602;38.096;2023-07-13T00:59:16;4.45;;;2.30;;
69779;SDS011;57052;55.602;38.096;2023-07-13T01:01:44;4.57;;;2.42;;
69779;SDS011;57052;55.602;38.096;2023-07-13T01:04:09;6.25;;;2.80;;
69779;SDS011;57052;55.602;38.096;2023-07-13T01:06:36;4.00;;;2.40;;
69779;SDS011;57052;55.602;38.096;2023-07-13T01:09:03;4.18;;;2.20;;
69779;SDS011;57052;55.602;38.096;2023-07-13T01:11:30;4.85;;;2.65;;
69779;SDS011;57052;55.602;38.096;2023-07-13T01:13:56;5.78;;;2.25;;
69779;SDS011;57052;55.602;38.096;2023-07-13T01:16:26;5.97;;;2.53;;
69779;SDS011;57052;55.602;38.096;2023-07-13T01:18:55;5.00;;;2.50;;
69779;SDS011;57052;55.602;38.096;2023-07-13T01:21:24;5.80;;;2.40;;
69779;SDS011;57052;55.602;38.096;2023-07-13T01:23:51;4.20;;;2.25;;
69779;SDS011;57052;55.602;38.096;2023-07-13T01:26:19;4.40;;;2.25;;
69779;SDS011;57052;55.602;38.096;2023-07-13T01:28:44;4.30;;;2.42;;
69779;SDS011;57052;55.602;38.096;2023-07-13T01:31:10;6.65;;;2.20;;
69779;SDS011;57052;55.602;38.096;2023-07-13T01:33:37;4.40;;;2.22;;
69779;SDS011;57052;55.602;38.096;2023-07-13T01:36:05;4.53;;;2.20;;
69779;SDS011;57052;55.602;38.096;2023-07-13T01:38:32;4.45;;;2.17;;
69779;SDS011;57052;55.602;38.096;2023-07-13T01:40:58;4.72;;;2.22;;
69779;SDS011;57052;55.602;38.096;2023-07-13T01:43:24;3.38;;;2.10;;
69779;SDS011;57052;55.602;38.096;2023-07-13T01:45:50;4.05;;;2.03;;
69779;SDS011;57052;55.602;38.096;2023-07-13T01:48:16;6.38;;;2.08;;
69779;SDS011;57052;55.602;38.096;2023-07-13T01:50:42;4.35;;;2.13;;
69779;SDS011;57052;55.602;38.096;2023-07-13T01:53:08;3.90;;;2.20;;
69779;SDS011;57052;55.602;38.096;2023-07-13T01:55:34;4.75;;;2.28;;
69779;SDS011;57052;55.602;38.096;2023-07-13T01:58:01;4.72;;;2.28;;
69779;SDS011;57052;55.602;38.096;2023-07-13T02:00:28;6.70;;;2.10;;
69779;SDS011;57052;55.602;38.096;2023-07-13T02:02:53;4.93;;;2.20;;
69779;SDS011;57052;55.602;38.096;2023-07-13T02:05:19;3.80;;;2.10;;
69779;SDS011;57052;55.602;38.096;2023-07-13T02:07:45;4.53;;;2.58;;
69779;SDS011;57052;55.602;38.096;2023-07-13T02:10:11;3.97;;;2.35;;
69779;SDS011;57052;55.602;38.096;2023-07-13T02:12:37;5.68;;;2.20;;
69779;SDS011;57052;55.602;38.096;2023-07-13T02:15:04;5.13;;;2.25;;
69779;SDS011;57052;55.602;38.096;2023-07-13T02:17:34;4.38;;;2.42;;
69779;SDS011;57052;55.602;38.096;2023-07-13T02:20:02;6.18;;;2.42;;
69779;SDS011;57052;55.602;38.096;2023-07-13T02:22:31;5.97;;;2.55;;
69779;SDS011;57052;55.602;38.096;2023-07-13T02:24:57;4.55;;;2.30;;
69779;SDS011;57052;55.602;38.096;2023-07-13T02:27:23;5.18;;;2.63;;
69779;SDS011;57052;55.602;38.096;2023-07-13T02:29:48;7.82;;;3.00;;
69779;SDS011;57052;55.602;38.096;2023-07-13T02:32:16;4.63;;;2.30;;
69779;SDS011;57052;55.602;38.096;2023-07-13T02:34:42;9.05;;;2.60;;
69779;SDS011;57052;55.602;38.096;2023-07-13T02:37:08;5.30;;;2.40;;
69779;SDS011;57052;55.602;38.096;2023-07-13T02:39:34;5.97;;;2.75;;
69779;SDS011;57052;55.602;38.096;2023-07-13T02:41:59;4.88;;;2.42;;
69779;SDS011;57052;55.602;38.096;2023-07-13T02:44:26;3.95;;;2.30;;
69779;SDS011;57052;55.602;38.096;2023-07-13T02:46:52;3.33;;;1.90;;
69779;SDS011;57052;55.602;38.096;2023-07-13T02:49:19;5.88;;;2.10;;
69779;SDS011;57052;55.602;38.096;2023-07-13T02:51:44;4.65;;;2.13;;
69779;SDS011;57052;55.602;38.096;2023-07-13T02:54:10;3.97;;;1.90;;
69779;SDS011;57052;55.602;38.096;2023-07-13T02:56:37;2.83;;;1.90;;
69779;SDS011;57052;55.602;38.096;2023-07-13T02:59:04;5.38;;;2.03;;
69779;SDS011;57052;55.602;38.096;2023-07-13T03:01:29;4.25;;;2.10;;
69779;SDS011;57052;55.602;38.096;2023-07-13T03:03:55;4.85;;;2.10;;
69779;SDS011;57052;55.602;38.096;2023-07-13T03:06:21;4.32;;;2.17;;
69779;SDS011;57052;55.602;38.096;2023-07-13T03:08:48;4.20;;;2.40;;
69779;SDS011;57052;55.602;38.096;2023-07-13T03:11:15;3.80;;;2.40;;
69779;SDS011;57052;55.602;38.096;2023-07-13T03:13:43;4.35;;;2.20;;
69779;SDS011;57052;55.602;38.096;2023-07-13T03:16:09;7.60;;;2.08;;
69779;SDS011;57052;55.602;38.096;2023-07-13T03:18:36;3.55;;;2.20;;
69779;SDS011;57052;55.602;38.096;2023-07-13T03:21:02;6.05;;;2.60;;
69779;SDS011;57052;55.602;38.096;2023-07-13T03:23:30;4.82;;;2.38;;
69779;SDS011;57052;55.602;38.096;2023-07-13T03:26:06;6.25;;;2.60;;
69779;SDS011;57052;55.602;38.096;2023-07-13T03:28:34;4.53;;;2.30;;
69779;SDS011;57052;55.602;38.096;2023-07-13T03:31:00;7.55;;;2.38;;
69779;SDS011;57052;55.602;38.096;2023-07-13T03:33:30;3.42;;;2.22;;
69779;SDS011;57052;55.602;38.096;2023-07-13T03:35:56;4.80;;;2.50;;
69779;SDS011;57052;55.602;38.096;2023-07-13T03:38:22;4.50;;;2.38;;
69779;SDS011;57052;55.602;38.096;2023-07-13T03:40:47;4.65;;;2.38;;
69779;SDS011;57052;55.602;38.096;2023-07-13T03:43:14;4.18;;;2.38;;
69779;SDS011;57052;55.602;38.096;2023-07-13T03:45:39;4.13;;;2.25;;
69779;SDS011;57052;55.602;38.096;2023-07-13T03:48:05;3.80;;;2.20;;
69779;SDS011;57052;55.602;38.096;2023-07-13T03:50:31;5.03;;;2.22;;
69779;SDS011;57052;55.602;38.096;2023-07-13T03:52:57;5.30;;;2.47;;
69779;SDS011;57052;55.602;38.096;2023-07-13T03:55:23;4.03;;;2.25;;
69779;SDS011;57052;55.602;38.096;2023-07-13T03:57:53;4.57;;;2.17;;
69779;SDS011;57052;55.602;38.096;2023-07-13T04:00:23;4.38;;;2.35;;
69779;SDS011;57052;55.602;38.096;2023-07-13T04:02:49;4.50;;;2.40;;
69779;SDS011;57052;55.602;38.096;2023-07-13T04:05:15;5.93;;;2.60;;
69779;SDS011;57052;55.602;38.096;2023-07-13T04:07:41;6.00;;;2.50;;
69779;SDS011;57052;55.602;38.096;2023-07-13T04:10:06;7.72;;;2.50;;
69779;SDS011;57052;55.602;38.096;2023-07-13T04:12:32;7.03;;;2.67;;
69779;SDS011;57052;55.602;38.096;2023-07-13T04:14:58;6.90;;;2.53;;
69779;SDS011;57052;55.602;38.096;2023-07-13T04:17:24;9.70;;;2.38;;
69779;SDS011;57052;55.602;38.096;2023-07-13T04:19:49;5.20;;;2.47;;
69779;SDS011;57052;55.602;38.096;2023-07-13T04:22:15;5.75;;;2.50;;
69779;SDS011;57052;55.602;38.096;2023-07-13T04:24:41;4.00;;;2.30;;
69779;SDS011;57052;55.602;38.096;2023-07-13T04:27:07;4.30;;;2.15;;
69779;SDS011;57052;55.602;38.096;2023-07-13T04:29:32;9.27;;;2.70;;
69779;SDS011;57052;55.602;38.096;2023-07-13T04:31:58;7.60;;;2.55;;
69779;SDS011;57052;55.602;38.096;2023-07-13T04:34:24;5.75;;;2.70;;
69779;SDS011;57052;55.602;38.096;2023-07-13T04:36:50;4.72;;;2.15;;
69779;SDS011;57052;55.602;38.096;2023-07-13T04:39:15;7.18;;;2.38;;
69779;SDS011;57052;55.602;38.096;2023-07-13T04:41:41;5.03;;;2.45;;
69779;SDS011;57052;55.602;38.096;2023-07-13T04:44:07;6.18;;;2.88;;
69779;SDS011;57052;55.602;38.096;2023-07-13T04:46:33;7.20;;;2.60;;
69779;SDS011;57052;55.602;38.096;2023-07-13T04:48:58;6.45;;;2.60;;
69779;SDS011;57052;55.602;38.096;2023-07-13T04:51:25;5.10;;;2.50;;
69779;SDS011;57052;55.602;38.096;2023-07-13T04:53:51;6.88;;;2.45;;
69779;SDS011;57052;55.602;38.096;2023-07-13T04:56:17;6.43;;;2.38;;
69779;SDS011;57052;55.602;38.096;2023-07-13T04:58:44;5.85;;;2.65;;
69779;SDS011;57052;55.602;38.096;2023-07-13T05:01:10;5.13;;;2.60;;
69779;SDS011;57052;55.602;38.096;2023-07-13T05:03:36;5.40;;;2.53;;
69779;SDS011;57052;55.602;38.096;2023-07-13T05:06:06;9.38;;;2.70;;
69779;SDS011;57052;55.602;38.096;2023-07-13T05:08:35;6.63;;;2.60;;
69779;SDS011;57052;55.602;38.096;2023-07-13T05:11:01;5.85;;;2.55;;
69779;SDS011;57052;55.602;38.096;2023-07-13T05:13:29;4.10;;;2.60;;
69779;SDS011;57052;55.602;38.096;2023-07-13T05:15:56;5.95;;;2.80;;
69779;SDS011;57052;55.602;38.096;2023-07-13T05:18:26;6.82;;;2.58;;
69779;SDS011;57052;55.602;38.096;2023-07-13T05:21:03;5.03;;;2.70;;
69779;SDS011;57052;55.602;38.096;2023-07-13T05:23:33;5.97;;;2.45;;
69779;SDS011;57052;55.602;38.096;2023-07-13T05:26:00;5.80;;;2.33;;
69779;SDS011;57052;55.602;38.096;2023-07-13T05:28:27;5.50;;;2.35;;
69779;SDS011;57052;55.602;38.096;2023-07-13T05:30:53;7.15;;;2.70;;
69779;SDS011;57052;55.602;38.096;2023-07-13T05:33:19;6.93;;;2.60;;
69779;SDS011;57052;55.602;38.096;2023-07-13T05:35:45;5.63;;;2.70;;
69779;SDS011;57052;55.602;38.096;2023-07-13T05:38:11;6.57;;;2.40;;
69779;SDS011;57052;55.602;38.096;2023-07-13T05:40:37;5.65;;;2.55;;
69779;SDS011;57052;55.602;38.096;2023-07-13T05:43:03;5.53;;;2.50;;
69779;SDS011;57052;55.602;38.096;2023-07-13T05:45:28;5.88;;;2.55;;
69779;SDS011;57052;55.602;38.096;2023-07-13T05:47:54;6.82;;;2.72;;
69779;SDS011;57052;55.602;38.096;2023-07-13T05:50:20;4.88;;;2.47;;
69779;SDS011;57052;55.602;38.096;2023-07-13T05:52:46;7.78;;;2.40;;
69779;SDS011;57052;55.602;38.096;2023-07-13T05:55:12;8.05;;;2.88;;
69779;SDS011;57052;55.602;38.096;2023-07-13T05:57:38;9.68;;;2.50;;
69779;SDS011;57052;55.602;38.096;2023-07-13T06:00:04;5.18;;;2.53;;
69779;SDS011;57052;55.602;38.096;2023-07-13T06:02:31;6.15;;;2.53;;
69779;SDS011;57052;55.602;38.096;2023-07-13T06:04:57;5.65;;;2.22;;
69779;SDS011;57052;55.602;38.096;2023-07-13T06:07:22;8.57;;;2.50;;
69779;SDS011;57052;55.602;38.096;2023-07-13T06:09:48;4.28;;;2.05;;
69779;SDS011;57052;55.602;38.096;2023-07-13T06:12:14;4.50;;;1.92;;
69779;SDS011;57052;55.602;38.096;2023-07-13T06:14:39;7.32;;;2.70;;
69779;SDS011;57052;55.602;38.096;2023-07-13T06:17:05;4.25;;;2.10;;
69779;SDS011;57052;55.602;38.096;2023-07-13T06:19:31;4.55;;;2.38;;
69779;SDS011;57052;55.602;38.096;2023-07-13T06:21:56;5.20;;;2.55;;
69779;SDS011;57052;55.602;38.096;2023-07-13T06:24:24;6.72;;;2.22;;
69779;SDS011;57052;55.602;38.096;2023-07-13T06:26:49;6.45;;;2.38;;
69779;SDS011;57052;55.602;38.096;2023-07-13T06:29:15;6.78;;;2.67;;
69779;SDS011;57052;55.602;38.096;2023-07-13T06:31:41;6.60;;;1.95;;
69779;SDS011;57052;55.602;38.096;2023-07-13T06:34:07;8.68;;;2.70;;
69779;SDS011;57052;55.602;38.096;2023-07-13T06:36:33;8.18;;;2.30;;
69779;SDS011;57052;55.602;38.096;2023-07-13T06:38:59;4.00;;;2.20;;
69779;SDS011;57052;55.602;38.096;2023-07-13T06:41:24;5.45;;;2.20;;
69779;SDS011;57052;55.602;38.096;2023-07-13T06:43:53;5.97;;;2.33;;
69779;SDS011;57052;55.602;38.096;2023-07-13T06:46:22;5.60;;;2.47;;
69779;SDS011;57052;55.602;38.096;2023-07-13T06:48:48;6.55;;;2.20;;
69779;SDS011;57052;55.602;38.096;2023-07-13T06:51:14;8.77;;;2.28;;
69779;SDS011;57052;55.602;38.096;2023-07-13T06:53:40;4.85;;;2.30;;
69779;SDS011;57052;55.602;38.096;2023-07-13T06:56:05;4.78;;;1.98;;
69779;SDS011;57052;55.602;38.096;2023-07-13T06:58:33;6.55;;;2.40;;
69779;SDS011;57052;55.602;38.096;2023-07-13T07:00:59;7.07;;;2.42;;
69779;SDS011;57052;55.602;38.096;2023-07-13T07:03:25;4.97;;;2.28;;
69779;SDS011;57052;55.602;38.096;2023-07-13T07:05:51;10.40;;;2.42;;
69779;SDS011;57052;55.602;38.096;2023-07-13T07:08:16;5.75;;;2.17;;
69779;SDS011;57052;55.602;38.096;2023-07-13T07:10:42;7.43;;;2.38;;
69779;SDS011;57052;55.602;38.096;2023-07-13T07:13:08;4.95;;;2.30;;
69779;SDS011;57052;55.602;38.096;2023-07-13T07:15:34;10.13;;;2.60;;
69779;SDS011;57052;55.602;38.096;2023-07-13T07:18:00;4.28;;;2.63;;
69779;SDS011;57052;55.602;38.096;2023-07-13T07:20:26;5.10;;;2.63;;
69779;SDS011;57052;55.602;38.096;2023-07-13T07:22:52;5.32;;;2.60;;
69779;SDS011;57052;55.602;38.096;2023-07-13T07:25:18;5.93;;;3.30;;
69779;SDS011;57052;55.602;38.096;2023-07-13T07:27:45;6.00;;;2.90;;
69779;SDS011;57052;55.602;38.096;2023-07-13T07:30:11;5.22;;;2.83;;
69779;SDS011;57052;55.602;38.096;2023-07-13T07:32:37;6.35;;;3.10;;
69779;SDS011;57052;55.602;38.096;2023-07-13T07:35:03;5.03;;;3.13;;
69779;SDS011;57052;55.602;38.096;2023-07-13T07:37:30;7.72;;;3.55;;
69779;SDS011;57052;55.602;38.096;2023-07-13T07:39:55;5.43;;;2.83;;
69779;SDS011;57052;55.602;38.096;2023-07-13T07:42:21;10.77;;;3.00;;
69779;SDS011;57052;55.602;38.096;2023-07-13T07:44:47;8.20;;;2.92;;
69779;SDS011;57052;55.602;38.096;2023-07-13T07:47:12;7.10;;;3.00;;
69779;SDS011;57052;55.602;38.096;2023-07-13T07:49:38;8.02;;;2.92;;
69779;SDS011;57052;55.602;38.096;2023-07-13T07:52:04;6.72;;;3.47;;
69779;SDS011;57052;55.602;38.096;2023-07-13T07:54:30;8.32;;;3.78;;
69779;SDS011;57052;55.602;38.096;2023-07-13T07:56:55;7.45;;;3.08;;
69779;SDS011;57052;55.602;38.096;2023-07-13T07:59:21;8.27;;;2.90;;
69779;SDS011;57052;55.602;38.096;2023-07-13T08:01:47;7.13;;;3.05;;
69779;SDS011;57052;55.602;38.096;2023-07-13T08:04:16;6.60;;;2.90;;
69779;SDS011;57052;55.602;38.096;2023-07-13T08:06:41;10.77;;;4.25;;
69779;SDS011;57052;55.602;38.096;2023-07-13T08:09:07;8.38;;;4.40;;
69779;SDS011;57052;55.602;38.096;2023-07-13T08:11:33;9.05;;;4.32;;
69779;SDS011;57052;55.602;38.096;2023-07-13T08:13:59;6.43;;;3.70;;
69779;SDS011;57052;55.602;38.096;2023-07-13T08:16:25;6.55;;;3.40;;
69779;SDS011;57052;55.602;38.096;2023-07-13T08:18:51;6.97;;;3.28;;
69779;SDS011;57052;55.602;38.096;2023-07-13T08:21:17;6.95;;;3.50;;
69779;SDS011;57052;55.602;38.096;2023-07-13T08:23:45;6.55;;;3.05;;
69779;SDS011;57052;55.602;38.096;2023-07-13T08:26:10;8.30;;;3.40;;
69779;SDS011;57052;55.602;38.096;2023-07-13T08:28:36;5.53;;;3.10;;
69779;SDS011;57052;55.602;38.096;2023-07-13T08:31:02;6.85;;;3.03;;
69779;SDS011;57052;55.602;38.096;2023-07-13T08:33:29;10.55;;;2.90;;
69779;SDS011;57052;55.602;38.096;2023-07-13T08:35:56;5.93;;;2.53;;
69779;SDS011;57052;55.602;38.096;2023-07-13T08:38:22;8.68;;;2.80;;
69779;SDS011;57052;55.602;38.096;2023-07-13T08:40:55;5.43;;;2.80;;
69779;SDS011;57052;55.602;38.096;2023-07-13T08:43:26;6.00;;;2.70;;
69779;SDS011;57052;55.602;38.096;2023-07-13T08:45:57;9.10;;;3.05;;
69779;SDS011;57052;55.602;38.096;2023-07-13T08:48:35;9.40;;;2.88;;
69779;SDS011;57052;55.602;38.096;2023-07-13T08:54:21;6.30;;;2.70;;
69779;SDS011;57052;55.602;38.096;2023-07-13T08:56:52;7.68;;;3.20;;
69779;SDS011;57052;55.602;38.096;2023-07-13T08:59:21;9.25;;;3.42;;
69779;SDS011;57052;55.602;38.096;2023-07-13T09:04:42;6.35;;;3.00;;
69779;SDS011;57052;55.602;38.096;2023-07-13T09:15:55;6.40;;;2.95;;
69779;SDS011;57052;55.602;38.096;2023-07-13T09:20:44;8.20;;;2.28;;
69779;SDS011;57052;55.602;38.096;2023-07-13T09:23:15;9.48;;;3.10;;
69779;SDS011;57052;55.602;38.096;2023-07-13T09:25:45;6.80;;;2.55;;
69779;SDS011;57052;55.602;38.096;2023-07-13T09:28:22;4.13;;;2.30;;
69779;SDS011;57052;55.602;38.096;2023-07-13T09:31:57;4.40;;;2.28;;
69779;SDS011;57052;55.602;38.096;2023-07-13T09:33:59;6.22;;;2.40;;
69779;SDS011;57052;55.602;38.096;2023-07-13T09:36:26;5.32;;;2.22;;
69779;SDS011;57052;55.602;38.096;2023-07-13T09:38:57;6.05;;;2.35;;
69779;SDS011;57052;55.602;38.096;2023-07-13T09:44:18;5.05;;;2.30;;
69779;SDS011;57052;55.602;38.096;2023-07-13T09:46:56;4.38;;;2.13;;
69779;SDS011;57052;55.602;38.096;2023-07-13T09:49:29;4.18;;;2.03;;
69779;SDS011;57052;55.602;38.096;2023-07-13T09:52:00;4.80;;;2.05;;
69779;SDS011;57052;55.602;38.096;2023-07-13T09:54:32;4.47;;;1.83;;
69779;SDS011;57052;55.602;38.096;2023-07-13T09:56:59;3.72;;;2.15;;
69779;SDS011;57052;55.602;38.096;2023-07-13T09:59:28;4.65;;;2.25;;
69779;SDS011;57052;55.602;38.096;2023-07-13T10:01:56;4.85;;;2.22;;
69779;SDS011;57052;55.602;38.096;2023-07-13T10:04:26;5.57;;;2.13;;
69779;SDS011;57052;55.602;38.096;2023-07-13T10:07:09;5.07;;;2.40;;
69779;SDS011;57052;55.602;38.096;2023-07-13T10:09:38;3.72;;;2.30;;
69779;SDS011;57052;55.602;38.096;2023-07-13T10:12:04;4.10;;;2.50;;
69779;SDS011;57052;55.602;38.096;2023-07-13T10:14:41;4.63;;;2.20;;
69779;SDS011;57052;55.602;38.096;2023-07-13T10:17:13;4.63;;;2.30;;
69779;SDS011;57052;55.602;38.096;2023-07-13T10:19:39;4.88;;;2.42;;
69779;SDS011;57052;55.602;38.096;2023-07-13T10:22:23;4.65;;;2.60;;
69779;SDS011;57052;55.602;38.096;2023-07-13T10:24:57;4.80;;;2.40;;
69779;SDS011;57052;55.602;38.096;2023-07-13T10:27:34;6.25;;;2.70;;
69779;SDS011;57052;55.602;38.096;2023-07-13T10:30:02;5.53;;;2.60;;
69779;SDS011;57052;55.602;38.096;2023-07-13T10:32:36;5.20;;;2.63;;
69779;SDS011;57052;55.602;38.096;2023-07-13T10:35:02;5.45;;;2.80;;
69779;SDS011;57052;55.602;38.096;2023-07-13T10:37:51;4.97;;;2.58;;
69779;SDS011;57052;55.602;38.096;2023-07-13T10:40:25;6.78;;;2.78;;
69779;SDS011;57052;55.602;38.096;2023-07-13T10:42:55;5.38;;;2.80;;
69779;SDS011;57052;55.602;38.096;2023-07-13T10:45:24;5.30;;;2.67;;
69779;SDS011;57052;55.602;38.096;2023-07-13T10:47:52;5.60;;;2.95;;
69779;SDS011;57052;55.602;38.096;2023-07-13T10:50:24;5.55;;;2.60;;
69779;SDS011;57052;55.602;38.096;2023-07-13T10:53:03;6.65;;;2.60;;
69779;SDS011;57052;55.602;38.096;2023-07-13T10:58:23;6.18;;;2.50;;
69779;SDS011;57052;55.602;38.096;2023-07-13T11:01:07;4.07;;;2.40;;
69779;SDS011;57052;55.602;38.096;2023-07-13T11:03:47;4.65;;;2.40;;
69779;SDS011;57052;55.602;38.096;2023-07-13T11:11:54;4.97;;;2.97;;
69779;SDS011;57052;55.602;38.096;2023-07-13T11:14:04;5.20;;;2.70;;
69779;SDS011;57052;55.602;38.096;2023-07-13T11:16:49;6.18;;;2.53;;
69779;SDS011;57052;55.602;38.096;2023-07-13T11:24:29;5.68;;;2.47;;
69779;SDS011;57052;55.602;38.096;2023-07-13T11:27:21;7.53;;;2.38;;
69779;SDS011;57052;55.602;38.096;2023-07-13T11:30:07;6.47;;;2.70;;
69779;SDS011;57052;55.602;38.096;2023-07-13T11:32:51;7.70;;;2.58;;
69779;SDS011;57052;55.602;38.096;2023-07-13T11:35:36;4.50;;;2.70;;
69779;SDS011;57052;55.602;38.096;2023-07-13T11:38:14;10.52;;;2.70;;
69779;SDS011;57052;55.602;38.096;2023-07-13T11:40:43;4.45;;;2.50;;
69779;SDS011;57052;55.602;38.096;2023-07-13T11:43:12;7.07;;;3.25;;
69779;SDS011;57052;55.602;38.096;2023-07-13T11:45:40;5.30;;;2.80;;
69779;SDS011;57052;55.602;38.096;2023-07-13T11:53:32;4.50;;;2.75;;
69779;SDS011;57052;55.602;38.096;2023-07-13T11:56:04;7.47;;;2.95;;
69779;SDS011;57052;55.602;38.096;2023-07-13T11:58:31;6.90;;;2.90;;
69779;SDS011;57052;55.602;38.096;2023-07-13T12:00:58;7.28;;;3.15;;
69779;SDS011;57052;55.602;38.096;2023-07-13T12:03:30;8.75;;;3.42;;
69779;SDS011;57052;55.602;38.096;2023-07-13T12:06:00;6.57;;;3.00;;
69779;SDS011;57052;55.602;38.096;2023-07-13T12:08:28;7.05;;;3.00;;
69779;SDS011;57052;55.602;38.096;2023-07-13T12:10:58;7.93;;;3.17;;
69779;SDS011;57052;55.602;38.096;2023-07-13T12:13:34;5.97;;;2.97;;
69779;SDS011;57052;55.602;38.096;2023-07-13T12:16:01;5.50;;;2.78;;
69779;SDS011;57052;55.602;38.096;2023-07-13T12:18:30;5.30;;;2.50;;
69779;SDS011;57052;55.602;38.096;2023-07-13T12:20:59;5.77;;;2.43;;
69779;SDS011;57052;55.602;38.096;2023-07-13T12:25:53;5.20;;;3.00;;
69779;SDS011;57052;55.602;38.096;2023-07-13T12:28:40;8.43;;;3.42;;
69779;SDS011;57052;55.602;38.096;2023-07-13T12:31:23;7.72;;;3.45;;
69779;SDS011;57052;55.602;38.096;2023-07-13T12:33:55;6.10;;;3.17;;
69779;SDS011;57052;55.602;38.096;2023-07-13T12:36:54;6.57;;;3.25;;
69779;SDS011;57052;55.602;38.096;2023-07-13T12:41:53;7.15;;;3.30;;
69779;SDS011;57052;55.602;38.096;2023-07-13T12:44:29;8.95;;;3.65;;
69779;SDS011;57052;55.602;38.096;2023-07-13T12:46:58;9.18;;;4.13;;
69779;SDS011;57052;55.602;38.096;2023-07-13T12:49:30;6.40;;;3.60;;
69779;SDS011;57052;55.602;38.096;2023-07-13T12:52:01;7.95;;;4.03;;
69779;SDS011;57052;55.602;38.096;2023-07-13T12:54:29;6.70;;;3.25;;
69779;SDS011;57052;55.602;38.096;2023-07-13T12:56:55;7.93;;;4.10;;
69779;SDS011;57052;55.602;38.096;2023-07-13T12:59:23;8.30;;;3.70;;
69779;SDS011;57052;55.602;38.096;2023-07-13T13:01:54;8.30;;;3.75;;
69779;SDS011;57052;55.602;38.096;2023-07-13T13:04:20;7.97;;;3.60;;
69779;SDS011;57052;55.602;38.096;2023-07-13T13:06:47;6.63;;;3.50;;
69779;SDS011;57052;55.602;38.096;2023-07-13T13:09:14;7.78;;;3.40;;
69779;SDS011;57052;55.602;38.096;2023-07-13T13:11:41;8.20;;;3.40;;
69779;SDS011;57052;55.602;38.096;2023-07-13T13:14:08;6.57;;;3.70;;
69779;SDS011;57052;55.602;38.096;2023-07-13T13:16:35;7.32;;;3.22;;
69779;SDS011;57052;55.602;38.096;2023-07-13T13:21:45;7.20;;;3.25;;
69779;SDS011;57052;55.602;38.096;2023-07-13T13:24:12;8.80;;;3.20;;
69779;SDS011;57052;55.602;38.096;2023-07-13T13:26:40;5.90;;;3.15;;
69779;SDS011;57052;55.602;38.096;2023-07-13T13:29:13;6.30;;;2.83;;
69779;SDS011;57052;55.602;38.096;2023-07-13T13:31:41;5.47;;;2.70;;
69779;SDS011;57052;55.602;38.096;2023-07-13T13:34:13;6.63;;;3.03;;
69779;SDS011;57052;55.602;38.096;2023-07-13T13:36:40;5.22;;;3.15;;
69779;SDS011;57052;55.602;38.096;2023-07-13T13:39:24;4.97;;;2.92;;
69779;SDS011;57052;55.602;38.096;2023-07-13T13:41:50;5.85;;;3.05;;
69779;SDS011;57052;55.602;38.096;2023-07-13T13:44:18;6.22;;;3.28;;
69779;SDS011;57052;55.602;38.096;2023-07-13T13:46:45;6.95;;;3.10;;
69779;SDS011;57052;55.602;38.096;2023-07-13T13:49:20;6.25;;;3.38;;
69779;SDS011;57052;55.602;38.096;2023-07-13T13:51:49;6.38;;;2.80;;
69779;SDS011;57052;55.602;38.096;2023-07-13T13:54:16;6.30;;;3.00;;
69779;SDS011;57052;55.602;38.096;2023-07-13T13:56:43;8.50;;;3.53;;
69779;SDS011;57052;55.602;38.096;2023-07-13T13:59:10;4.90;;;2.63;;
69779;SDS011;57052;55.602;38.096;2023-07-13T14:01:37;7.95;;;2.88;;
69779;SDS011;57052;55.602;38.096;2023-07-13T14:04:04;7.38;;;3.22;;
69779;SDS011;57052;55.602;38.096;2023-07-13T14:06:31;7.72;;;2.92;;
69779;SDS011;57052;55.602;38.096;2023-07-13T14:08:58;5.53;;;2.58;;
69779;SDS011;57052;55.602;38.096;2023-07-13T14:11:25;8.27;;;2.67;;
69779;SDS011;57052;55.602;38.096;2023-07-13T14:13:52;4.85;;;2.63;;
69779;SDS011;57052;55.602;38.096;2023-07-13T14:16:21;5.53;;;2.90;;
69779;SDS011;57052;55.602;38.096;2023-07-13T14:18:53;8.52;;;2.67;;
69779;SDS011;57052;55.602;38.096;2023-07-13T14:21:20;5.45;;;2.97;;
69779;SDS011;57052;55.602;38.096;2023-07-13T14:23:47;6.38;;;3.13;;
69779;SDS011;57052;55.602;38.096;2023-07-13T14:26:19;9.10;;;4.15;;
69779;SDS011;57052;55.602;38.096;2023-07-13T14:28:48;7.45;;;3.50;;
69779;SDS011;57052;55.602;38.096;2023-07-13T14:31:17;7.57;;;3.85;;
69779;SDS011;57052;55.602;38.096;2023-07-13T14:33:43;9.57;;;3.67;;
69779;SDS011;57052;55.602;38.096;2023-07-13T14:36:20;6.68;;;4.13;;
69779;SDS011;57052;55.602;38.096;2023-07-13T14:38:50;9.85;;;3.80;;
69779;SDS011;57052;55.602;38.096;2023-07-13T14:41:16;7.70;;;4.40;;
69779;SDS011;57052;55.602;38.096;2023-07-13T14:43:41;9.32;;;3.97;;
69779;SDS011;57052;55.602;38.096;2023-07-13T14:46:09;10.65;;;4.10;;
69779;SDS011;57052;55.602;38.096;2023-07-13T14:49:03;10.15;;;3.63;;
69779;SDS011;57052;55.602;38.096;2023-07-13T14:51:31;9.55;;;4.10;;
69779;SDS011;57052;55.602;38.096;2023-07-13T14:54:03;8.55;;;4.18;;
69779;SDS011;57052;55.602;38.096;2023-07-13T14:56:30;8.52;;;3.92;;
69779;SDS011;57052;55.602;38.096;2023-07-13T14:58:57;7.30;;;4.10;;
69779;SDS011;57052;55.602;38.096;2023-07-13T15:01:23;8.50;;;3.90;;
69779;SDS011;57052;55.602;38.096;2023-07-13T15:03:50;8.27;;;4.53;;
69779;SDS011;57052;55.602;38.096;2023-07-13T15:06:17;9.63;;;4.65;;
69779;SDS011;57052;55.602;38.096;2023-07-13T15:08:44;9.80;;;4.32;;
69779;SDS011;57052;55.602;38.096;2023-07-13T15:11:10;9.20;;;4.63;;
69779;SDS011;57052;55.602;38.096;2023-07-13T15:13:39;9.30;;;4.85;;
69779;SDS011;57052;55.602;38.096;2023-07-13T15:16:10;8.88;;;4.50;;
69779;SDS011;57052;55.602;38.096;2023-07-13T15:18:49;7.07;;;3.80;;
69779;SDS011;57052;55.602;38.096;2023-07-13T15:21:20;8.50;;;3.83;;
69779;SDS011;57052;55.602;38.096;2023-07-13T15:23:50;7.28;;;4.03;;
69779;SDS011;57052;55.602;38.096;2023-07-13T15:26:17;10.05;;;4.20;;
69779;SDS011;57052;55.602;38.096;2023-07-13T15:28:44;6.72;;;3.72;;
69779;SDS011;57052;55.602;38.096;2023-07-13T15:31:19;7.88;;;3.50;;